Nelsonville, Wisconsin
Current Conditions -  °F | °C
As of 7:15 PM on Monday 20 Oct 2014 (Local Time) from KSTE Reporting Station
Overcast Overcast  
Wind Chill: 44°   Ceiling: 4100
Heat Index: 48°   Visibility: 10mi
Dew Point: 39°   Wind: 7mph
Humidity: 71%   Direction: 340°NNW
Pressure: 30.02"   Gusts: NA
Location:  44.49°N, 89.31°W
Report Text: KSTE 210015Z AUTO 34006KT 10SM OVC041 09/04 A3002 RMK AO2 T00870038
Loading
Personal Weather Stations






























Interactive Weather Map New forecast layout! Learn more

10-Day Weather Forecast

Advertisements
Track Severe Weather on mobile